Time;durP1;ratioP1;P1;durP2;ratioP2;P2;SDS_P1;SDS_P2;PMS_P1;PMS_P2;Temp;Humidity;BMP_temperature;BMP_pressure;BME280_temperature;BME280_humidity;BME280_pressure;Samples;Min_cycle;Max_cycle;Signal;HPM_P1;HPM_P2
2023/07/11 00:01:16;;;;;;;10.70;3.10;;;20.40;99.90;;;;;;5133366;27;20015;-72
2023/07/11 00:03:42;;;;;;;9.38;3.10;;;20.40;99.90;;;;;;5133139;27;20019;-72
2023/07/11 00:06:15;;;;;;;6.88;2.63;;;20.40;99.90;;;;;;5133134;27;20128;-72
2023/07/11 00:08:41;;;;;;;9.32;2.83;;;20.40;99.90;;;;;;5132958;27;20102;-72
2023/07/11 00:11:10;;;;;;;6.45;2.58;;;20.30;99.90;;;;;;5133115;27;20444;-72
2023/07/11 00:13:37;;;;;;;6.43;2.80;;;20.30;99.90;;;;;;5131947;27;20027;-72
2023/07/11 00:16:06;;;;;;;7.88;2.67;;;20.40;99.90;;;;;;5132444;27;20098;-72
2023/07/11 00:18:32;;;;;;;9.52;2.90;;;20.30;99.90;;;;;;5106107;27;20062;-72
2023/07/11 00:20:57;;;;;;;9.55;2.60;;;20.30;99.90;;;;;;5132757;27;20054;-72
2023/07/11 00:23:24;;;;;;;9.23;2.70;;;20.40;99.90;;;;;;5131931;27;20106;-72
2023/07/11 00:25:50;;;;;;;8.40;3.10;;;20.30;99.90;;;;;;5132510;27;20015;-72
2023/07/11 00:28:16;;;;;;;8.77;2.90;;;20.30;99.90;;;;;;5132439;27;20027;-72
2023/07/11 00:30:41;;;;;;;6.57;2.47;;;20.30;99.90;;;;;;5114301;27;20064;-72
2023/07/11 00:33:11;;;;;;;9.52;2.60;;;20.30;99.90;;;;;;5131426;27;20526;-72
2023/07/11 00:35:37;;;;;;;9.73;2.60;;;20.40;99.90;;;;;;5132055;27;20058;-72
2023/07/11 00:38:04;;;;;;;7.97;2.60;;;20.30;99.90;;;;;;5132162;27;20536;-72
2023/07/11 00:40:30;;;;;;;7.07;2.40;;;20.30;99.90;;;;;;5133038;27;20382;-72
2023/07/11 00:43:00;;;;;;;8.93;2.50;;;20.30;99.90;;;;;;5130781;27;20031;-72
2023/07/11 00:46:03;;;;;;;8.45;2.45;;;20.30;99.90;;;;;;5117404;27;20019;-72
2023/07/11 00:48:33;;;;;;;11.00;2.80;;;20.30;99.90;;;;;;5130836;27;20027;-72
2023/07/11 00:50:59;;;;;;;11.48;2.58;;;20.30;99.90;;;;;;5131755;27;20051;-72
2023/07/11 00:53:27;;;;;;;8.75;2.63;;;20.30;99.90;;;;;;5131996;27;20053;-72
2023/07/11 00:55:54;;;;;;;9.68;2.70;;;20.20;99.90;;;;;;5117176;27;20038;-72
2023/07/11 00:58:21;;;;;;;6.50;2.50;;;20.20;99.90;;;;;;5132005;27;20026;-72
2023/07/11 01:00:46;;;;;;;7.00;2.60;;;20.30;99.90;;;;;;5132261;27;20379;-72
2023/07/11 01:03:12;;;;;;;8.40;2.78;;;20.30;99.90;;;;;;5131613;27;20019;-72
2023/07/11 01:05:39;;;;;;;8.73;2.65;;;20.30;99.90;;;;;;5131975;27;20047;-72
2023/07/11 01:08:05;;;;;;;9.15;2.60;;;20.30;99.90;;;;;;5131564;27;20031;-72
2023/07/11 01:10:31;;;;;;;8.38;2.90;;;20.30;99.90;;;;;;5131942;27;20020;-72
2023/07/11 01:13:00;;;;;;;6.85;2.70;;;20.30;99.90;;;;;;5131506;27;20016;-72
2023/07/11 01:15:25;;;;;;;8.65;2.83;;;20.20;99.90;;;;;;5131841;27;20516;-72
2023/07/11 01:17:51;;;;;;;6.88;2.70;;;20.20;99.90;;;;;;5131427;27;20068;-72
2023/07/11 01:20:17;;;;;;;11.18;3.03;;;20.20;99.90;;;;;;5131705;27;20501;-72
2023/07/11 01:22:43;;;;;;;8.48;3.15;;;20.20;99.90;;;;;;5131664;27;20019;-72
2023/07/11 01:25:12;;;;;;;9.15;2.85;;;20.20;99.90;;;;;;5131678;27;20398;-72
2023/07/11 01:27:39;;;;;;;7.43;2.72;;;20.20;99.90;;;;;;5131338;27;20027;-72
2023/07/11 01:30:08;;;;;;;10.30;2.88;;;20.20;99.90;;;;;;5131730;27;20033;-72
2023/07/11 01:32:34;;;;;;;9.77;2.67;;;20.20;99.90;;;;;;5131181;27;20064;-72
2023/07/11 01:35:00;;;;;;;7.25;3.03;;;20.10;99.90;;;;;;5131404;27;20023;-72
2023/07/11 01:37:26;;;;;;;9.10;2.75;;;20.10;99.90;;;;;;5109550;27;20031;-72
2023/07/11 01:39:52;;;;;;;8.75;2.83;;;20.10;99.90;;;;;;5131529;27;20068;-72
2023/07/11 01:42:17;;;;;;;7.57;2.83;;;20.10;99.90;;;;;;5131052;27;20023;-72
2023/07/11 01:44:43;;;;;;;9.80;3.03;;;20.10;99.90;;;;;;5112582;27;20019;-72
2023/07/11 01:47:09;;;;;;;7.13;2.85;;;20.10;99.90;;;;;;5130355;27;20027;-72
2023/07/11 01:49:35;;;;;;;6.70;3.00;;;20.10;99.90;;;;;;5125641;27;20544;-72
2023/07/11 01:52:14;;;;;;;9.38;2.90;;;20.00;99.90;;;;;;5126323;27;20054;-72
2023/07/11 01:54:39;;;;;;;10.95;3.03;;;20.00;99.90;;;;;;5131055;27;20046;-72
2023/07/11 01:57:07;;;;;;;11.35;3.22;;;20.00;99.90;;;;;;5130844;27;20474;-72
2023/07/11 01:59:33;;;;;;;9.48;3.13;;;20.00;99.90;;;;;;5131147;27;20022;-72
2023/07/11 02:01:59;;;;;;;7.57;3.00;;;20.00;99.90;;;;;;5130847;27;20019;-72
2023/07/11 02:04:24;;;;;;;9.85;3.10;;;20.00;99.90;;;;;;5130783;27;20042;-72
2023/07/11 02:06:51;;;;;;;10.20;2.95;;;20.00;99.90;;;;;;5130710;27;20090;-72
2023/07/11 02:09:18;;;;;;;10.85;3.10;;;20.00;99.90;;;;;;5131004;27;20019;-72
2023/07/11 02:11:44;;;;;;;6.30;2.90;;;20.00;99.90;;;;;;5130846;28;20034;-72
2023/07/11 02:14:13;;;;;;;8.50;3.00;;;20.00;99.90;;;;;;5130858;28;20110;-72
2023/07/11 02:16:39;;;;;;;10.02;3.03;;;20.00;99.90;;;;;;5130458;28;20479;-72
2023/07/11 02:19:05;;;;;;;7.53;2.85;;;20.00;99.90;;;;;;5130235;28;20038;-72
2023/07/11 02:21:30;;;;;;;8.90;2.78;;;20.00;99.90;;;;;;5130753;28;20106;-72
2023/07/11 02:23:56;;;;;;;6.97;2.78;;;19.90;99.90;;;;;;5130558;28;20031;-72
2023/07/11 02:26:25;;;;;;;7.20;2.78;;;19.90;99.90;;;;;;5112306;28;20106;-72
2023/07/11 02:28:51;;;;;;;13.18;2.75;;;19.90;99.90;;;;;;5130315;28;20034;-72
2023/07/11 02:31:16;;;;;;;13.57;2.95;;;19.90;99.90;;;;;;5130648;28;20020;-72
2023/07/11 02:33:42;;;;;;;10.55;3.28;;;19.80;99.90;;;;;;5130488;28;20030;-72
2023/07/11 02:36:08;;;;;;;8.13;3.00;;;19.80;99.90;;;;;;5130416;28;20038;-72
2023/07/11 02:38:33;;;;;;;8.20;3.00;;;19.80;99.90;;;;;;5130434;28;20126;-72
2023/07/11 02:40:59;;;;;;;7.90;2.60;;;19.80;99.90;;;;;;5130799;28;20042;-72
2023/07/11 02:43:24;;;;;;;6.20;2.58;;;19.80;99.90;;;;;;5130693;28;20030;-72
2023/07/11 02:45:51;;;;;;;7.32;2.47;;;19.80;99.90;;;;;;5130091;28;20007;-72
2023/07/11 02:48:17;;;;;;;10.95;3.08;;;19.80;99.90;;;;;;5114698;28;20023;-72
2023/07/11 02:50:42;;;;;;;9.25;2.70;;;19.70;99.90;;;;;;5130090;28;20084;-72
2023/07/11 02:53:08;;;;;;;8.73;2.70;;;19.70;99.90;;;;;;5130524;28;20148;-72
2023/07/11 02:55:39;;;;;;;8.02;2.58;;;19.70;99.90;;;;;;5119539;28;20091;-72
2023/07/11 02:58:04;;;;;;;6.70;2.60;;;19.70;99.90;;;;;;5131360;27;20537;-72
2023/07/11 03:00:30;;;;;;;6.40;2.28;;;19.70;99.90;;;;;;5134204;27;20098;-72
2023/07/11 03:02:56;;;;;;;11.23;2.40;;;19.70;99.90;;;;;;5134114;27;20028;-72
2023/07/11 03:05:21;;;;;;;6.35;2.50;;;19.70;99.90;;;;;;5134152;27;20136;-72
2023/07/11 03:07:47;;;;;;;8.57;2.88;;;19.60;99.90;;;;;;5124142;27;20023;-72
2023/07/11 03:10:13;;;;;;;7.95;2.22;;;19.60;99.90;;;;;;5132875;27;20047;-72
2023/07/11 03:12:39;;;;;;;6.97;2.20;;;19.60;99.90;;;;;;5133169;27;20026;-72
2023/07/11 03:15:05;;;;;;;7.07;2.40;;;19.60;99.90;;;;;;5115313;27;20027;-72
2023/07/11 03:17:31;;;;;;;9.30;2.22;;;19.60;99.90;;;;;;5124443;27;20024;-72
2023/07/11 03:19:57;;;;;;;6.97;2.17;;;19.60;99.90;;;;;;5133576;27;20042;-72
2023/07/11 03:22:23;;;;;;;6.07;2.25;;;19.60;99.90;;;;;;5133900;27;20483;-72
2023/07/11 03:24:48;;;;;;;8.52;2.42;;;19.60;99.90;;;;;;5111923;28;20020;-72
2023/07/11 03:27:14;;;;;;;5.95;2.00;;;19.60;99.90;;;;;;5129600;27;20019;-72
2023/07/11 03:29:39;;;;;;;7.45;1.98;;;19.50;99.90;;;;;;5133562;27;20090;-72
2023/07/11 03:32:06;;;;;;;11.48;2.10;;;19.50;99.90;;;;;;5133883;27;20383;-72
2023/07/11 03:34:32;;;;;;;8.55;2.22;;;19.50;99.90;;;;;;5133726;27;20019;-72
2023/07/11 03:36:57;;;;;;;6.90;2.20;;;19.50;99.90;;;;;;5134161;27;20088;-72
2023/07/11 03:39:24;;;;;;;7.45;2.03;;;19.50;99.90;;;;;;5133613;27;20019;-72
2023/07/11 03:41:49;;;;;;;6.15;2.10;;;19.50;99.90;;;;;;5133934;27;20064;-72
2023/07/11 03:44:17;;;;;;;7.97;2.13;;;19.50;99.90;;;;;;5111319;28;20024;-72
2023/07/11 03:46:43;;;;;;;7.68;2.20;;;19.50;99.90;;;;;;5131859;27;20332;-72
2023/07/11 03:49:09;;;;;;;7.05;2.00;;;19.50;99.90;;;;;;5133311;27;20049;-72
2023/07/11 03:51:35;;;;;;;9.13;2.42;;;19.50;99.90;;;;;;5133016;27;20480;-72
2023/07/11 03:54:01;;;;;;;7.97;2.35;;;19.50;99.90;;;;;;5133157;27;20011;-72
2023/07/11 03:56:27;;;;;;;8.57;2.30;;;19.50;99.90;;;;;;5133031;27;20064;-72
2023/07/11 03:58:53;;;;;;;6.88;2.08;;;19.50;99.90;;;;;;5133065;27;20090;-72
2023/07/11 04:01:19;;;;;;;9.32;2.38;;;19.50;99.90;;;;;;5133106;27;20540;-72
2023/07/11 04:03:45;;;;;;;6.32;2.00;;;19.50;99.90;;;;;;5132945;27;20359;-72
2023/07/11 04:06:12;;;;;;;5.88;2.35;;;19.50;99.90;;;;;;5133176;27;20024;-72
2023/07/11 04:08:37;;;;;;;6.32;2.17;;;19.50;99.90;;;;;;5132850;27;20904;-72
2023/07/11 04:11:03;;;;;;;6.60;1.80;;;19.50;99.90;;;;;;5132101;27;20028;-72
2023/07/11 04:13:29;;;;;;;6.20;2.08;;;19.50;99.90;;;;;;5132735;27;20023;-72
2023/07/11 04:15:55;;;;;;;5.25;1.90;;;19.50;99.90;;;;;;5108054;27;20110;-72
2023/07/11 04:18:21;;;;;;;7.13;1.75;;;19.50;99.90;;;;;;5132637;27;20384;-72
2023/07/11 04:20:47;;;;;;;4.00;1.85;;;19.50;99.90;;;;;;5132499;27;20023;-72
2023/07/11 04:23:16;;;;;;;3.90;1.77;;;19.50;99.90;;;;;;5132682;27;20142;-72
2023/07/11 04:25:41;;;;;;;8.10;2.10;;;19.50;99.90;;;;;;5132644;27;20507;-72
2023/07/11 04:28:07;;;;;;;6.07;1.90;;;19.50;99.90;;;;;;5132497;27;20042;-72
2023/07/11 04:30:33;;;;;;;6.18;2.40;;;19.50;99.90;;;;;;5131494;27;20011;-77
2023/07/11 04:32:58;;;;;;;7.07;2.88;;;19.50;99.90;;;;;;5129364;27;20483;-77
2023/07/11 04:35:24;;;;;;;5.25;2.20;;;19.60;99.90;;;;;;5132293;27;20091;-77
2023/07/11 04:37:50;;;;;;;5.68;2.08;;;19.60;99.90;;;;;;5131343;27;20019;-77
2023/07/11 04:40:16;;;;;;;6.45;2.28;;;19.60;99.90;;;;;;5128181;27;20034;-77
2023/07/11 04:42:41;;;;;;;5.18;1.80;;;19.60;99.90;;;;;;5132569;27;20467;-78
2023/07/11 04:45:08;;;;;;;8.57;2.08;;;19.60;99.90;;;;;;5134220;27;20518;-78
2023/07/11 04:47:35;;;;;;;7.40;2.30;;;19.60;99.90;;;;;;5133258;27;20455;-76
2023/07/11 04:50:01;;;;;;;5.25;2.05;;;19.60;99.90;;;;;;5128239;27;20465;-76
2023/07/11 04:52:27;;;;;;;5.35;2.05;;;19.70;99.90;;;;;;5121490;27;20047;-76
2023/07/11 04:54:52;;;;;;;8.77;2.13;;;19.70;99.90;;;;;;5127574;27;20055;-75
2023/07/11 04:57:18;;;;;;;8.60;2.22;;;19.70;99.90;;;;;;5133335;27;20099;-78
2023/07/11 04:59:44;;;;;;;7.18;2.20;;;19.70;99.90;;;;;;5134070;27;20025;-77
2023/07/11 05:02:09;;;;;;;10.60;2.60;;;19.80;99.90;;;;;;5133172;27;20437;-78
2023/07/11 05:04:38;;;;;;;7.80;2.35;;;19.80;99.90;;;;;;5124200;27;20024;-78
2023/07/11 05:07:04;;;;;;;8.75;2.35;;;19.80;99.90;;;;;;5122163;27;20031;-78
2023/07/11 05:09:30;;;;;;;9.85;2.50;;;19.80;99.90;;;;;;5105141;28;20019;-78
2023/07/11 05:11:56;;;;;;;9.75;2.17;;;19.80;99.90;;;;;;5121642;27;20383;-78
2023/07/11 05:14:23;;;;;;;6.90;2.53;;;19.90;99.90;;;;;;5125794;27;20041;-78
2023/07/11 05:16:48;;;;;;;8.98;2.45;;;19.90;99.90;;;;;;5126555;27;20059;-78
2023/07/11 05:19:14;;;;;;;8.48;2.15;;;19.90;99.90;;;;;;5127409;27;20050;-78
2023/07/11 05:21:40;;;;;;;8.95;2.70;;;19.90;99.90;;;;;;5126660;27;20027;-78
2023/07/11 05:24:06;;;;;;;9.68;2.58;;;20.00;99.90;;;;;;5129531;27;20448;-76
2023/07/11 05:26:32;;;;;;;12.82;2.80;;;20.00;99.90;;;;;;5129975;27;20744;-76
2023/07/11 05:28:58;;;;;;;12.35;2.60;;;20.10;99.90;;;;;;5130667;27;20429;-77
2023/07/11 05:31:24;;;;;;;11.07;2.80;;;20.10;99.90;;;;;;5131343;27;20015;-77
2023/07/11 05:33:54;;;;;;;12.00;2.30;;;20.10;99.90;;;;;;5129999;27;20019;-77
2023/07/11 05:36:31;;;;;;;14.27;2.80;;;20.10;99.90;;;;;;5129831;27;20140;-77
2023/07/11 05:39:00;;;;;;;9.15;2.50;;;20.10;99.90;;;;;;5131207;27;20058;-77
2023/07/11 05:41:26;;;;;;;13.02;2.67;;;20.20;99.90;;;;;;5128859;27;20391;-77
2023/07/11 05:43:51;;;;;;;8.77;2.72;;;20.20;99.90;;;;;;5126780;27;20024;-77
2023/07/11 05:46:17;;;;;;;8.65;2.80;;;20.30;99.90;;;;;;5126208;27;20031;-77
2023/07/11 05:48:42;;;;;;;9.30;2.85;;;20.30;99.90;;;;;;5124907;27;20027;-77
2023/07/11 05:51:11;;;;;;;9.38;2.97;;;20.40;99.90;;;;;;5130265;27;20404;-76
2023/07/11 05:53:37;;;;;;;11.23;2.97;;;20.40;99.90;;;;;;5121927;27;20019;-77
2023/07/11 05:56:02;;;;;;;12.05;2.75;;;20.50;99.90;;;;;;5130754;27;20023;-77
2023/07/11 05:58:30;;;;;;;12.25;3.03;;;20.60;99.90;;;;;;5127834;27;20510;-77
2023/07/11 06:00:57;;;;;;;10.38;2.70;;;20.60;99.90;;;;;;5125616;27;20035;-78
2023/07/11 06:03:23;;;;;;;8.38;2.90;;;20.70;99.90;;;;;;5131071;27;20350;-77
2023/07/11 06:05:50;;;;;;;17.17;3.30;;;20.80;99.90;;;;;;5131156;27;20016;-77
2023/07/11 06:08:16;;;;;;;11.13;3.05;;;20.80;99.90;;;;;;5130724;27;20023;-78
2023/07/11 06:10:42;;;;;;;9.18;2.92;;;20.90;99.90;;;;;;5130996;27;20051;-77
2023/07/11 06:13:10;;;;;;;9.98;2.90;;;21.00;99.90;;;;;;5122048;28;20023;-77
2023/07/11 06:15:36;;;;;;;11.27;3.28;;;21.00;99.90;;;;;;5128763;28;20020;-77
2023/07/11 06:18:01;;;;;;;13.07;3.63;;;21.10;99.90;;;;;;5129531;28;20034;-77
2023/07/11 06:20:27;;;;;;;12.50;3.40;;;21.20;99.90;;;;;;5130828;28;20027;-77
2023/07/11 06:22:54;;;;;;;8.20;3.28;;;21.20;99.90;;;;;;5130474;28;20031;-77
2023/07/11 06:25:20;;;;;;;13.30;3.67;;;21.20;99.90;;;;;;5130133;28;20015;-77
2023/07/11 06:27:46;;;;;;;12.50;3.72;;;21.30;99.90;;;;;;5115397;28;20103;-77
2023/07/11 06:30:12;;;;;;;11.35;3.42;;;21.30;99.90;;;;;;5130877;28;20069;-77
2023/07/11 06:32:38;;;;;;;12.63;3.58;;;21.40;99.90;;;;;;5130448;27;20023;-77
2023/07/11 06:35:04;;;;;;;11.95;3.83;;;21.40;99.90;;;;;;5116236;27;20027;-77
2023/07/11 06:37:30;;;;;;;8.57;3.15;;;21.50;99.90;;;;;;5134576;27;20023;-77
2023/07/11 06:39:56;;;;;;;10.77;3.65;;;21.50;99.90;;;;;;5126633;27;20414;-77
2023/07/11 06:42:21;;;;;;;10.38;3.90;;;21.60;99.90;;;;;;5134342;27;20490;-77
2023/07/11 06:44:47;;;;;;;6.95;3.55;;;21.70;99.90;;;;;;5134512;27;20102;-77
2023/07/11 06:47:12;;;;;;;11.25;3.85;;;21.80;99.90;;;;;;5133788;27;20023;-77
2023/07/11 06:49:38;;;;;;;8.95;2.88;;;21.90;99.90;;;;;;5134785;27;20034;-77
2023/07/11 06:52:04;;;;;;;10.20;3.40;;;22.00;99.90;;;;;;5134849;27;20055;-77
2023/07/11 06:54:30;;;;;;;9.20;3.60;;;22.10;99.90;;;;;;5135019;27;20383;-77
2023/07/11 06:56:58;;;;;;;12.23;3.40;;;22.20;99.90;;;;;;5129198;27;20076;-77
2023/07/11 06:59:24;;;;;;;10.73;3.60;;;22.40;99.90;;;;;;5124153;27;20027;-77
2023/07/11 07:01:49;;;;;;;14.68;3.47;;;22.50;99.90;;;;;;5133487;27;20448;-77
2023/07/11 07:04:15;;;;;;;12.80;3.60;;;22.60;99.90;;;;;;5133952;27;20498;-77
2023/07/11 07:06:42;;;;;;;13.07;3.00;;;22.70;99.90;;;;;;5128704;27;20019;-77
2023/07/11 07:09:08;;;;;;;8.95;3.13;;;22.80;99.90;;;;;;5128446;27;20159;-78
2023/07/11 07:11:35;;;;;;;7.85;2.58;;;22.90;99.90;;;;;;5111027;27;20031;-78
2023/07/11 07:14:05;;;;;;;8.07;2.65;;;23.00;99.90;;;;;;5125514;27;20024;-78
2023/07/11 07:16:32;;;;;;;8.60;2.58;;;23.20;99.90;;;;;;5133368;27;20424;-77
2023/07/11 07:18:58;;;;;;;8.20;2.78;;;23.30;99.90;;;;;;5131963;27;20390;-78
2023/07/11 07:21:23;;;;;;;6.47;2.42;;;23.40;99.90;;;;;;5133175;27;20027;-77
2023/07/11 07:23:49;;;;;;;9.50;2.60;;;23.50;99.90;;;;;;5131163;27;20064;-77
2023/07/11 07:26:15;;;;;;;7.32;2.65;;;23.50;99.90;;;;;;5132596;27;20035;-78
2023/07/11 07:28:40;;;;;;;9.48;2.40;;;23.60;99.90;;;;;;5133711;27;20030;-78
2023/07/11 07:31:06;;;;;;;8.95;2.67;;;23.70;99.90;;;;;;5132651;27;20050;-78
2023/07/11 07:33:32;;;;;;;6.95;2.58;;;23.80;99.90;;;;;;5132801;27;20020;-78
2023/07/11 07:36:04;;;;;;;9.45;2.55;;;23.90;99.90;;;;;;5128840;27;20032;-78
2023/07/11 07:38:30;;;;;;;9.13;2.67;;;24.00;99.90;;;;;;5133249;27;20082;-80
2023/07/11 07:40:58;;;;;;;11.68;2.70;;;24.10;99.90;;;;;;5133878;27;20035;-77
2023/07/11 07:43:25;;;;;;;11.15;2.42;;;24.10;99.90;;;;;;5112934;27;20542;-77
2023/07/11 07:45:52;;;;;;;10.23;2.63;;;24.20;99.90;;;;;;5130603;27;20421;-77
2023/07/11 07:48:18;;;;;;;8.85;2.72;;;24.30;99.90;;;;;;5130186;27;20032;-77
2023/07/11 07:50:44;;;;;;;6.93;2.63;;;24.30;99.90;;;;;;5129620;27;20023;-77
2023/07/11 07:53:11;;;;;;;9.50;2.75;;;24.40;99.90;;;;;;5129476;27;20494;-77
2023/07/11 07:55:38;;;;;;;14.57;2.80;;;24.40;99.90;;;;;;5130386;27;20015;-77
2023/07/11 07:58:04;;;;;;;7.45;2.50;;;24.40;99.90;;;;;;5129875;27;20113;-77
2023/07/11 08:00:30;;;;;;;8.75;2.60;;;24.50;99.90;;;;;;5130957;27;20563;-77
2023/07/11 08:02:56;;;;;;;7.25;2.65;;;24.60;99.90;;;;;;5128960;27;20119;-77
2023/07/11 08:05:21;;;;;;;8.00;2.78;;;24.70;99.90;;;;;;5129480;27;20020;-77
2023/07/11 08:07:48;;;;;;;11.13;2.92;;;24.90;99.70;;;;;;5132289;27;20019;-77
2023/07/11 08:10:15;;;;;;;9.93;2.75;;;24.90;99.30;;;;;;5131875;27;20023;-76
2023/07/11 08:12:41;;;;;;;10.45;2.53;;;24.90;99.00;;;;;;5132512;27;20417;-77
2023/07/11 08:15:08;;;;;;;8.85;2.53;;;25.00;99.00;;;;;;5131727;27;20051;-77
2023/07/11 08:17:34;;;;;;;10.45;2.90;;;25.00;98.90;;;;;;5102727;27;20032;-77
2023/07/11 08:20:00;;;;;;;7.53;2.25;;;25.20;99.20;;;;;;5130039;27;20039;-77
2023/07/11 08:22:25;;;;;;;6.32;2.50;;;25.30;99.00;;;;;;5132140;27;20064;-77
2023/07/11 08:24:51;;;;;;;6.75;2.20;;;25.50;98.00;;;;;;5131145;27;20023;-78
2023/07/11 08:27:17;;;;;;;7.43;2.47;;;25.50;97.50;;;;;;5111776;27;20038;-77
2023/07/11 08:29:45;;;;;;;8.82;2.00;;;25.50;97.30;;;;;;5111988;27;20027;-77
2023/07/11 08:32:14;;;;;;;5.82;2.03;;;25.60;97.20;;;;;;5130543;27;20023;-78
2023/07/11 08:34:41;;;;;;;7.93;2.47;;;25.70;97.20;;;;;;5126359;27;20019;-77
2023/07/11 08:37:07;;;;;;;6.80;2.20;;;25.70;96.60;;;;;;5132896;27;20031;-78
2023/07/11 08:39:33;;;;;;;6.00;2.20;;;25.70;96.40;;;;;;5132282;27;20027;-77
2023/07/11 08:42:05;;;;;;;6.10;2.20;;;25.70;96.30;;;;;;5132736;27;20560;-77
2023/07/11 08:44:43;;;;;;;12.52;2.15;;;25.80;96.10;;;;;;5127517;27;20051;-77
2023/07/11 08:47:35;;;;;;;5.40;1.90;;;25.90;95.90;;;;;;5133434;27;20019;-77
2023/07/11 08:50:18;;;;;;;4.03;2.13;;;25.90;95.90;;;;;;5128551;27;20019;-78
2023/07/11 08:52:48;;;;;;;10.00;2.30;;;25.90;95.40;;;;;;5127855;27;20440;-77
2023/07/11 08:55:30;;;;;;;8.52;2.50;;;25.80;95.30;;;;;;5132083;27;20144;-77
2023/07/11 08:58:11;;;;;;;8.07;2.40;;;25.90;95.10;;;;;;5132335;27;20053;-76
2023/07/11 09:00:38;;;;;;;4.43;2.25;;;25.90;95.20;;;;;;5130558;27;20034;-78
2023/07/11 09:03:30;;;;;;;10.05;2.42;;;25.90;95.20;;;;;;5127536;27;20069;-77
2023/07/11 09:06:07;;;;;;;8.98;2.67;;;26.10;95.00;;;;;;5130685;27;20031;-78
2023/07/11 09:08:38;;;;;;;7.10;2.33;;;26.10;94.90;;;;;;5130013;27;20475;-77
2023/07/11 09:11:24;;;;;;;6.80;2.38;;;26.00;95.00;;;;;;5131853;27;20532;-78
2023/07/11 09:14:11;;;;;;;9.07;2.38;;;26.10;95.40;;;;;;5120149;27;20409;-78
2023/07/11 09:16:46;;;;;;;12.77;2.60;;;26.20;95.90;;;;;;5120058;27;20028;-78
2023/07/11 09:19:51;;;;;;;12.35;2.58;;;26.40;95.50;;;;;;5126584;27;20034;-78
2023/07/11 09:22:35;;;;;;;11.65;2.55;;;26.40;95.40;;;;;;5089947;27;20031;-77
2023/07/11 09:25:17;;;;;;;10.02;2.47;;;26.20;95.50;;;;;;5126793;27;20023;-78
2023/07/11 09:27:51;;;;;;;7.45;2.10;;;26.20;96.00;;;;;;5125481;27;20043;-78
2023/07/11 09:30:22;;;;;;;11.07;2.70;;;26.30;95.80;;;;;;5118169;27;20092;-78
2023/07/11 09:32:48;;;;;;;8.02;2.10;;;26.30;95.90;;;;;;5132811;27;20080;-76
2023/07/11 09:35:23;;;;;;;7.80;2.22;;;26.20;96.10;;;;;;5123667;27;20032;-77
2023/07/11 09:37:53;;;;;;;6.45;2.35;;;26.20;96.10;;;;;;5129696;27;20115;-77
2023/07/11 09:40:41;;;;;;;6.30;2.22;;;26.30;96.20;;;;;;5131919;27;20042;-77
2023/07/11 09:43:08;;;;;;;8.38;2.58;;;26.40;95.20;;;;;;5123364;27;20027;-77
2023/07/11 09:45:37;;;;;;;7.75;2.50;;;26.40;95.10;;;;;;5131630;27;20019;-77
2023/07/11 09:48:09;;;;;;;9.93;2.65;;;26.30;94.90;;;;;;5130863;27;20109;-77
2023/07/11 09:50:47;;;;;;;6.97;2.25;;;26.30;94.70;;;;;;5126777;27;20019;-77
2023/07/11 09:53:27;;;;;;;7.85;2.47;;;26.40;94.90;;;;;;5121129;27;20023;-77
2023/07/11 09:55:54;;;;;;;10.27;2.78;;;26.60;94.80;;;;;;5126616;27;20019;-77
2023/07/11 09:58:19;;;;;;;8.63;2.90;;;26.80;94.40;;;;;;5130148;27;20440;-77
2023/07/11 10:00:47;;;;;;;11.95;2.80;;;26.80;94.00;;;;;;5120497;27;20052;-77
2023/07/11 10:03:22;;;;;;;14.05;2.60;;;27.00;93.50;;;;;;5132014;27;20031;-77
2023/07/11 10:05:50;;;;;;;9.32;2.88;;;27.00;93.80;;;;;;5131681;27;20019;-77
2023/07/11 10:08:19;;;;;;;9.30;2.70;;;27.10;94.00;;;;;;5130077;27;20526;-78
2023/07/11 10:10:56;;;;;;;7.82;2.80;;;27.30;93.70;;;;;;5125966;27;20080;-78
2023/07/11 10:13:22;;;;;;;12.73;2.67;;;27.40;92.90;;;;;;5126588;28;20027;-78
2023/07/11 10:15:52;;;;;;;9.27;2.55;;;27.40;92.70;;;;;;5132257;28;20015;-77
2023/07/11 10:18:22;;;;;;;6.13;1.83;;;27.40;92.70;;;;;;5118035;28;20024;-77
2023/07/11 10:20:51;;;;;;;7.55;2.05;;;27.40;93.10;;;;;;5109965;28;20638;-77
2023/07/11 10:23:24;;;;;;;7.07;2.08;;;27.50;93.20;;;;;;5131295;28;20564;-73
2023/07/11 10:26:04;;;;;;;5.82;2.03;;;27.60;93.20;;;;;;5130097;28;20487;-74
2023/07/11 10:28:39;;;;;;;7.78;2.08;;;27.70;93.00;;;;;;5130900;28;20128;-76
2023/07/11 10:31:23;;;;;;;10.07;2.53;;;27.80;93.00;;;;;;5129942;28;20042;-74
2023/07/11 10:33:57;;;;;;;6.30;2.13;;;27.70;92.50;;;;;;5123167;28;20479;-75
2023/07/11 10:36:40;;;;;;;8.40;2.25;;;27.70;92.60;;;;;;5128842;28;20118;-74
2023/07/11 10:39:26;;;;;;;9.10;2.42;;;27.60;91.90;;;;;;5124752;28;20111;-74
2023/07/11 10:41:57;;;;;;;;;;;27.50;92.40;;;;;;5122067;28;20075;-75
2023/07/11 10:44:34;;;;;;;6.95;2.15;;;27.50;92.50;;;;;;5130243;28;19939;-74
2023/07/11 10:47:00;;;;;;;6.70;2.30;;;27.60;92.30;;;;;;5127428;28;20106;-74
2023/07/11 10:49:28;;;;;;;6.38;2.45;;;27.70;92.00;;;;;;5123138;28;20440;-74
2023/07/11 10:52:02;;;;;;;8.25;2.38;;;27.60;92.10;;;;;;5129189;28;20035;-74
2023/07/11 10:55:05;;;;;;;9.75;2.47;;;27.50;92.00;;;;;;5130673;28;20051;-74
2023/07/11 10:57:38;;;;;;;7.72;2.22;;;27.70;92.30;;;;;;5117264;28;20035;-74
2023/07/11 11:00:08;;;;;;;12.80;2.47;;;28.00;92.00;;;;;;5130329;28;20031;-74
2023/07/11 11:03:16;;;;;;;7.35;2.42;;;28.10;91.50;;;;;;5130443;28;20035;-74
2023/07/11 11:06:00;;;;;;;8.40;2.55;;;28.20;90.70;;;;;;5118825;28;20059;-74
2023/07/11 11:08:58;;;;;;;6.63;2.08;;;28.20;90.70;;;;;;5130610;28;20007;-74
2023/07/11 11:11:56;;;;;;;7.53;2.00;;;28.20;90.60;;;;;;5109149;28;20044;-74
2023/07/11 11:14:31;;;;;;;5.35;1.95;;;28.40;90.60;;;;;;5101506;28;20028;-74
2023/07/11 11:17:16;;;;;;;6.45;2.00;;;28.40;90.30;;;;;;5125377;28;20023;-74
2023/07/11 11:20:23;;;;;;;8.10;2.50;;;28.40;90.00;;;;;;5131914;27;20031;-74
2023/07/11 11:22:48;;;;;;;10.30;2.47;;;28.40;90.10;;;;;;5128450;27;20066;-74
2023/07/11 11:25:25;;;;;;;8.27;2.10;;;28.50;89.80;;;;;;5134344;27;20049;-75
2023/07/11 11:28:13;;;;;;;5.35;2.05;;;28.60;89.70;;;;;;5130844;27;20015;-74
2023/07/11 11:30:57;;;;;;;8.18;2.42;;;28.70;89.30;;;;;;5133561;27;20027;-74
2023/07/11 11:33:42;;;;;;;5.55;2.10;;;28.70;88.80;;;;;;5108900;27;20131;-74
2023/07/11 11:36:34;;;;;;;6.97;2.10;;;28.80;88.20;;;;;;5133818;27;20094;-74
2023/07/11 11:39:41;;;;;;;12.40;2.28;;;28.80;86.90;;;;;;5133349;27;20387;-74
2023/07/11 11:42:16;;;;;;;8.98;2.70;;;28.90;87.10;;;;;;5094037;27;20035;-74
2023/07/11 11:44:55;;;;;;;6.75;2.30;;;28.90;85.90;;;;;;5129943;27;20368;-74
2023/07/11 11:47:22;;;;;;;8.63;2.40;;;28.90;86.10;;;;;;5133477;27;20020;-74
2023/07/11 11:49:49;;;;;;;8.02;2.55;;;29.00;85.70;;;;;;5133703;27;20091;-74
2023/07/11 11:52:15;;;;;;;5.47;2.30;;;29.00;86.30;;;;;;5133166;27;20148;-74
2023/07/11 11:54:46;;;;;;;8.40;2.50;;;29.00;87.10;;;;;;5133615;27;20086;-75
2023/07/11 11:57:25;;;;;;;6.57;2.15;;;28.90;86.10;;;;;;5131449;27;20104;-75
2023/07/11 11:59:51;;;;;;;6.10;1.98;;;29.00;87.30;;;;;;5133505;27;20026;-75
2023/07/11 12:02:24;;;;;;;8.63;2.05;;;29.10;87.90;;;;;;5133294;27;20034;-75
2023/07/11 12:05:06;;;;;;;8.38;2.38;;;29.10;87.90;;;;;;5133932;27;20482;-72
2023/07/11 12:07:36;;;;;;;6.97;2.10;;;29.20;87.70;;;;;;5116727;27;20020;-72
2023/07/11 12:10:09;;;;;;;7.50;2.45;;;29.20;88.30;;;;;;5130739;27;20054;-71
2023/07/11 12:12:34;;;;;;;7.95;2.20;;;29.20;87.20;;;;;;5132734;27;20046;-72
2023/07/11 12:15:11;;;;;;;9.05;2.30;;;29.20;87.40;;;;;;5125618;27;20024;-71
2023/07/11 12:17:39;;;;;;;8.88;2.42;;;29.20;87.50;;;;;;5128702;27;20070;-71
2023/07/11 12:20:10;;;;;;;10.68;2.20;;;29.00;87.70;;;;;;5114090;27;20023;-71
2023/07/11 12:22:38;;;;;;;7.53;2.40;;;28.80;88.20;;;;;;5132703;27;20024;-72
2023/07/11 12:25:10;;;;;;;9.48;2.13;;;28.80;88.80;;;;;;5125231;27;20031;-71
2023/07/11 12:27:35;;;;;;;8.68;2.42;;;28.90;88.70;;;;;;5130820;27;20029;-71
2023/07/11 12:30:23;;;;;;;8.60;2.17;;;28.90;88.30;;;;;;5123316;27;20019;-71
2023/07/11 12:32:50;;;;;;;5.05;2.00;;;28.70;88.60;;;;;;5123638;27;20035;-71
2023/07/11 12:35:24;;;;;;;6.85;2.28;;;28.70;89.40;;;;;;5131892;27;20019;-71
2023/07/11 12:37:59;;;;;;;7.28;2.58;;;28.60;89.20;;;;;;5132116;27;20160;-71
2023/07/11 12:40:59;;;;;;;10.55;2.20;;;28.50;90.00;;;;;;5127094;27;20180;-71
2023/07/11 12:43:32;;;;;;;6.28;2.35;;;28.50;89.80;;;;;;5131889;27;20019;-71
2023/07/11 12:46:35;;;;;;;8.38;2.40;;;28.40;90.30;;;;;;5132287;27;20019;-71
2023/07/11 12:49:03;;;;;;;7.65;2.40;;;28.30;90.30;;;;;;5129776;27;20035;-71
2023/07/11 12:51:37;;;;;;;7.22;2.00;;;28.20;90.60;;;;;;5131908;27;20138;-71
2023/07/11 12:54:20;;;;;;;6.55;2.05;;;28.20;90.90;;;;;;5132140;27;20011;-71
2023/07/11 12:56:48;;;;;;;5.85;1.98;;;28.20;91.00;;;;;;5131927;27;20029;-72
2023/07/11 12:59:20;;;;;;;4.40;1.60;;;28.20;91.10;;;;;;5132197;27;20146;-71